createdAt,value
2019-01-15T00:02:08.867Z,2.98
2019-01-15T00:04:37.171Z,3.03
2019-01-15T00:07:05.548Z,3.03
2019-01-15T00:09:33.794Z,3.09
2019-01-15T00:12:07.787Z,3.09
2019-01-15T00:14:32.058Z,3.11
2019-01-15T00:17:00.458Z,3.12
2019-01-15T00:19:28.752Z,3.15
2019-01-15T00:21:57.069Z,3.15
2019-01-15T00:24:27.455Z,3.16
2019-01-15T00:26:57.234Z,3.19
2019-01-15T00:29:25.655Z,3.20
2019-01-15T00:31:54.565Z,3.20
2019-01-15T00:34:22.935Z,3.19
2019-01-15T00:36:51.260Z,3.19
2019-01-15T00:39:19.976Z,3.21
2019-01-15T00:41:48.541Z,3.23
2019-01-15T00:44:16.826Z,3.22
2019-01-15T00:46:45.104Z,3.25
2019-01-15T00:49:13.471Z,3.25
2019-01-15T00:51:41.802Z,3.24
2019-01-15T00:54:10.164Z,3.24
2019-01-15T00:56:38.433Z,3.22
2019-01-15T00:59:06.812Z,3.22
2019-01-15T01:01:35.096Z,3.25
2019-01-15T01:04:03.609Z,3.23
2019-01-15T01:06:31.965Z,3.22
2019-01-15T01:09:00.223Z,3.21
2019-01-15T01:11:28.545Z,3.22
2019-01-15T01:13:56.817Z,3.24
2019-01-15T01:16:25.125Z,3.21
2019-01-15T01:18:53.442Z,3.20
2019-01-15T01:21:21.729Z,3.21
2019-01-15T01:23:49.987Z,3.21
2019-01-15T01:26:18.238Z,3.21
2019-01-15T01:28:46.515Z,3.22
2019-01-15T01:31:14.803Z,3.22
2019-01-15T01:33:43.106Z,3.24
2019-01-15T01:36:11.354Z,3.23
2019-01-15T01:38:39.645Z,3.23
2019-01-15T01:41:08.031Z,3.25
2019-01-15T01:43:36.330Z,3.27
2019-01-15T01:46:04.619Z,3.28
2019-01-15T01:48:32.905Z,3.29
2019-01-15T01:51:01.166Z,3.34
2019-01-15T01:53:29.450Z,3.34
2019-01-15T01:55:58.074Z,3.37
2019-01-15T01:58:26.398Z,3.37
2019-01-15T02:00:54.706Z,3.39
2019-01-15T02:03:23.007Z,3.38
2019-01-15T02:05:51.277Z,3.36
2019-01-15T02:08:19.526Z,3.35
2019-01-15T02:10:47.843Z,3.38
2019-01-15T02:13:16.148Z,3.38
2019-01-15T02:15:44.438Z,3.34
2019-01-15T02:18:12.700Z,3.34
2019-01-15T02:20:40.963Z,3.32
2019-01-15T02:23:09.297Z,3.33
2019-01-15T02:25:37.559Z,3.33
2019-01-15T02:28:05.842Z,3.35
2019-01-15T02:30:34.189Z,3.37
2019-01-15T02:33:02.647Z,3.37
2019-01-15T02:35:30.894Z,3.39
2019-01-15T02:37:59.234Z,3.42
2019-01-15T02:40:27.533Z,3.40
2019-01-15T02:42:55.779Z,3.41
2019-01-15T02:45:24.058Z,3.45
2019-01-15T02:47:52.308Z,3.45
2019-01-15T02:50:21.163Z,3.47
2019-01-15T02:52:49.454Z,3.48
2019-01-15T02:55:17.714Z,3.51
2019-01-15T02:57:46.021Z,3.51
2019-01-15T03:00:17.136Z,3.53
2019-01-15T03:02:45.429Z,3.50
2019-01-15T03:05:13.913Z,3.50
2019-01-15T03:07:42.214Z,3.52
2019-01-15T03:10:13.339Z,3.53
2019-01-15T03:12:43.373Z,3.54
2019-01-15T03:15:11.617Z,3.54
2019-01-15T03:17:39.869Z,3.54
2019-01-15T03:20:13.550Z,3.57
2019-01-15T03:22:41.803Z,3.59
2019-01-15T03:25:10.467Z,3.57
2019-01-15T03:27:38.856Z,3.57
2019-01-15T03:30:10.854Z,3.57
2019-01-15T03:32:39.164Z,3.54
2019-01-15T03:35:07.596Z,3.54
2019-01-15T03:37:35.847Z,3.53
2019-01-15T03:40:07.013Z,3.55
2019-01-15T03:42:35.259Z,3.53
2019-01-15T03:45:04.985Z,3.53
2019-01-15T03:47:33.504Z,3.52
2019-01-15T03:50:01.774Z,3.53
2019-01-15T03:52:30.035Z,3.52
2019-01-15T03:54:58.344Z,3.54
2019-01-15T03:57:26.628Z,3.57
2019-01-15T03:59:54.903Z,3.56
2019-01-15T04:02:23.366Z,3.60
2019-01-15T04:04:51.942Z,3.62
2019-01-15T04:07:20.336Z,3.61
2019-01-15T04:09:49.494Z,3.65
2019-01-15T04:12:17.762Z,3.68
2019-01-15T04:14:46.101Z,3.69
2019-01-15T04:17:14.402Z,3.75
2019-01-15T04:19:42.713Z,3.81
2019-01-15T04:22:11.038Z,3.82
2019-01-15T04:24:39.426Z,3.86
2019-01-15T04:27:07.682Z,3.88
2019-01-15T04:29:35.941Z,3.86
2019-01-15T04:32:04.225Z,3.86
2019-01-15T04:34:32.521Z,3.85
2019-01-15T04:37:00.838Z,3.89
2019-01-15T04:39:29.118Z,3.90
2019-01-15T04:41:57.359Z,3.93
2019-01-15T04:44:25.644Z,3.96
2019-01-15T04:46:53.953Z,3.99
2019-01-15T04:49:22.365Z,3.98
2019-01-15T04:51:50.618Z,4.00
2019-01-15T04:54:18.877Z,4.02
2019-01-15T04:56:47.461Z,4.06
2019-01-15T04:59:15.829Z,4.06
2019-01-15T05:01:44.208Z,4.10
2019-01-15T05:04:12.587Z,4.14
2019-01-15T05:06:40.834Z,4.22
2019-01-15T05:09:09.282Z,4.22
2019-01-15T05:11:37.591Z,4.25
2019-01-15T05:14:05.842Z,4.29
2019-01-15T05:16:34.132Z,4.36
2019-01-15T05:19:02.436Z,4.40
2019-01-15T05:21:31.384Z,4.44
2019-01-15T05:23:59.693Z,4.46
2019-01-15T05:26:28.325Z,4.50
2019-01-15T05:28:56.928Z,4.58
2019-01-15T05:31:25.266Z,4.60
2019-01-15T05:33:53.542Z,4.63
2019-01-15T05:36:21.969Z,4.68
2019-01-15T05:38:50.208Z,4.75
2019-01-15T05:41:18.493Z,4.75
2019-01-15T05:43:46.816Z,4.76
2019-01-15T05:46:15.068Z,4.81
2019-01-15T05:48:43.513Z,4.82
2019-01-15T05:51:13.426Z,4.86
2019-01-15T05:53:41.689Z,4.88
2019-01-15T05:56:10.021Z,4.88
2019-01-15T05:58:38.390Z,4.87
2019-01-15T06:01:06.921Z,4.89
2019-01-15T06:03:35.248Z,4.89
2019-01-15T06:06:03.680Z,4.93
2019-01-15T06:08:33.379Z,4.93
2019-01-15T06:11:01.927Z,4.93
2019-01-15T06:13:30.302Z,4.99
2019-01-15T06:15:58.587Z,5.00
2019-01-15T06:18:26.881Z,5.04
2019-01-15T06:20:55.198Z,5.07
2019-01-15T06:23:23.557Z,5.10
2019-01-15T06:25:51.900Z,5.10
2019-01-15T06:28:20.199Z,5.10
2019-01-15T06:30:48.556Z,5.12
2019-01-15T06:33:16.829Z,5.12
2019-01-15T06:35:45.091Z,5.16
2019-01-15T06:38:13.446Z,5.17
2019-01-15T06:40:41.751Z,5.17
2019-01-15T06:43:09.991Z,5.17
2019-01-15T06:45:38.279Z,5.16
2019-01-15T06:48:10.034Z,5.19
2019-01-15T06:50:38.333Z,5.19
2019-01-15T06:53:06.621Z,5.19
2019-01-15T06:55:35.078Z,5.17
2019-01-15T06:58:03.376Z,5.21
2019-01-15T07:00:32.282Z,5.25
2019-01-15T07:03:00.540Z,5.21
2019-01-15T07:05:28.914Z,5.21
2019-01-15T07:07:57.237Z,5.25
2019-01-15T07:10:28.227Z,5.25
2019-01-15T07:12:56.631Z,5.31
2019-01-15T07:15:24.952Z,5.32
2019-01-15T07:17:53.211Z,5.27
2019-01-15T07:20:21.492Z,5.27
2019-01-15T07:22:49.843Z,5.32
2019-01-15T07:25:23.655Z,5.29
2019-01-15T07:27:51.905Z,5.35
2019-01-15T07:30:23.526Z,5.36
2019-01-15T07:32:51.811Z,5.42
2019-01-15T07:35:20.091Z,5.46
2019-01-15T07:37:48.374Z,5.47
2019-01-15T07:40:16.683Z,5.47
2019-01-15T07:42:44.944Z,5.47
2019-01-15T07:45:14.202Z,5.47
2019-01-15T07:47:42.469Z,5.55
2019-01-15T07:50:20.976Z,5.59
2019-01-15T07:52:49.402Z,5.59
2019-01-15T07:55:18.947Z,5.65
2019-01-15T07:57:47.220Z,5.69
2019-01-15T08:00:20.404Z,5.71
2019-01-15T08:02:49.329Z,5.65
2019-01-15T08:05:19.765Z,5.65
2019-01-15T08:07:48.080Z,5.78
2019-01-15T08:10:17.628Z,5.84
2019-01-15T08:12:45.951Z,5.85
2019-01-15T08:15:17.336Z,5.85
2019-01-15T08:17:45.642Z,5.88
2019-01-15T08:20:14.562Z,5.91
2019-01-15T08:22:42.863Z,5.91
2019-01-15T08:25:13.638Z,5.94
2019-01-15T08:27:41.918Z,5.97
2019-01-15T08:30:28.056Z,5.97
2019-01-15T08:32:56.322Z,5.99
2019-01-15T08:35:24.598Z,6.00
2019-01-15T08:37:52.850Z,6.04
2019-01-15T08:40:21.373Z,6.07
2019-01-15T08:42:49.623Z,6.09
2019-01-15T08:45:18.595Z,6.11
2019-01-15T08:47:51.507Z,6.11
2019-01-15T08:50:22.755Z,6.16
2019-01-15T08:52:51.020Z,6.15
2019-01-15T08:55:19.344Z,6.18
2019-01-15T08:57:47.655Z,6.23
2019-01-15T09:00:15.899Z,6.23
2019-01-15T09:02:44.448Z,6.27
2019-01-15T09:05:12.877Z,6.22
2019-01-15T09:07:41.120Z,6.27
2019-01-15T09:10:12.804Z,6.27
2019-01-15T09:12:41.188Z,6.25
2019-01-15T09:15:12.328Z,6.28
2019-01-15T09:17:40.610Z,6.33
2019-01-15T09:20:12.311Z,6.34
2019-01-15T09:22:40.565Z,6.35
2019-01-15T09:25:08.833Z,6.34
2019-01-15T09:27:37.128Z,6.34
2019-01-15T09:30:12.290Z,6.34
2019-01-15T09:32:40.586Z,6.40
2019-01-15T09:35:08.858Z,6.43
2019-01-15T09:37:37.310Z,6.45
2019-01-15T09:40:09.095Z,6.45
2019-01-15T09:42:37.379Z,6.47
2019-01-15T09:45:08.902Z,6.49
2019-01-15T09:47:38.853Z,6.53
2019-01-15T09:50:10.648Z,6.55
2019-01-15T09:52:39.168Z,6.56
2019-01-15T09:55:08.789Z,6.60
2019-01-15T09:57:37.364Z,6.67
2019-01-15T10:00:13.883Z,6.70
2019-01-15T10:02:42.139Z,6.72
2019-01-15T10:05:10.403Z,6.73
2019-01-15T10:07:38.738Z,6.77
2019-01-15T10:10:10.282Z,6.76
2019-01-15T10:12:38.528Z,6.78
2019-01-15T10:15:12.625Z,6.83
2019-01-15T10:17:40.886Z,6.83
2019-01-15T10:20:11.297Z,6.87
2019-01-15T10:22:39.598Z,6.90
2019-01-15T10:25:10.491Z,6.89
2019-01-15T10:27:39.026Z,6.92
2019-01-15T10:30:21.277Z,6.91
2019-01-15T10:32:55.690Z,6.94
2019-01-15T10:35:27.266Z,6.98
2019-01-15T10:37:55.509Z,6.99
2019-01-15T10:40:23.873Z,7.00
2019-01-15T10:42:52.147Z,7.00
2019-01-15T10:45:20.426Z,7.02
2019-01-15T10:47:48.720Z,7.02
2019-01-15T10:50:17.040Z,7.00
2019-01-15T10:52:45.319Z,7.00
2019-01-15T10:55:13.672Z,6.97
2019-01-15T10:57:41.955Z,6.99
2019-01-15T11:00:15.314Z,6.97
2019-01-15T11:02:43.581Z,7.02
2019-01-15T11:05:12.326Z,7.03
2019-01-15T11:07:40.651Z,7.07
2019-01-15T11:10:12.329Z,7.06
2019-01-15T11:12:40.580Z,7.07
2019-01-15T11:15:09.286Z,7.09
2019-01-15T11:17:37.573Z,7.17
2019-01-15T11:20:09.093Z,7.18
2019-01-15T11:22:37.390Z,7.22
2019-01-15T11:25:07.427Z,7.24
2019-01-15T11:27:35.698Z,7.26
2019-01-15T11:30:07.034Z,7.22
2019-01-15T11:32:35.362Z,7.25
2019-01-15T11:35:04.207Z,7.27
2019-01-15T11:37:32.469Z,7.30
2019-01-15T11:40:00.741Z,7.33
2019-01-15T11:42:29.062Z,7.35
2019-01-15T11:45:03.342Z,7.33
2019-01-15T11:47:27.306Z,7.35
2019-01-15T11:49:55.586Z,7.36
2019-01-15T11:52:23.876Z,7.36
2019-01-15T11:54:52.145Z,7.40
2019-01-15T11:57:20.532Z,7.43
2019-01-15T11:59:48.800Z,7.42
2019-01-15T12:02:22.336Z,7.42
2019-01-15T12:04:50.306Z,7.43
2019-01-15T12:07:26.483Z,7.44
2019-01-15T12:10:02.171Z,7.46
2019-01-15T12:12:37.971Z,7.50
2019-01-15T12:15:11.459Z,7.55
2019-01-15T12:17:53.430Z,7.58
2019-01-15T12:20:29.316Z,7.58
2019-01-15T12:23:02.385Z,7.62
2019-01-15T12:25:35.056Z,7.66
2019-01-15T12:28:23.058Z,7.72
2019-01-15T12:31:01.963Z,7.74
2019-01-15T12:33:40.593Z,7.76
2019-01-15T12:36:26.658Z,7.77
2019-01-15T12:38:59.023Z,7.79
2019-01-15T12:41:28.934Z,7.82
2019-01-15T12:43:58.855Z,7.82
2019-01-15T12:46:31.297Z,7.86
2019-01-15T12:49:12.986Z,7.87
2019-01-15T12:51:51.772Z,7.87
2019-01-15T12:54:24.559Z,7.94
2019-01-15T12:56:54.454Z,7.93
2019-01-15T12:59:52.715Z,7.97
2019-01-15T13:02:32.101Z,7.98
2019-01-15T13:05:14.194Z,8.00
2019-01-15T13:07:49.832Z,8.03
2019-01-15T13:10:36.745Z,8.07
2019-01-15T13:13:23.215Z,8.07
2019-01-15T13:15:56.784Z,8.08
2019-01-15T13:18:32.687Z,8.08
2019-01-15T13:21:08.649Z,8.10
2019-01-15T13:23:44.601Z,8.09
2019-01-15T13:26:20.523Z,8.13
2019-01-15T13:29:06.561Z,8.20
2019-01-15T13:31:36.481Z,8.18
2019-01-15T13:34:15.036Z,8.17
2019-01-15T13:36:47.907Z,8.22
2019-01-15T13:39:30.080Z,8.22
2019-01-15T13:42:00.115Z,8.20
2019-01-15T13:44:42.107Z,8.20
2019-01-15T13:47:17.800Z,8.21
2019-01-15T13:49:47.757Z,8.21
2019-01-15T13:52:34.027Z,8.22
2019-01-15T13:55:19.373Z,8.18
2019-01-15T13:58:06.183Z,8.18
2019-01-15T14:00:36.115Z,8.15
2019-01-15T14:03:08.783Z,8.14
2019-01-15T14:05:38.731Z,8.12
2019-01-15T14:08:08.638Z,8.11
2019-01-15T14:10:47.439Z,8.10
2019-01-15T14:13:29.376Z,8.13
2019-01-15T14:15:59.332Z,8.10
2019-01-15T14:18:32.167Z,8.13
2019-01-15T14:21:02.087Z,8.14
2019-01-15T14:23:50.172Z,8.12
2019-01-15T14:26:20.078Z,8.12
2019-01-15T14:28:50.120Z,8.08
2019-01-15T14:31:29.416Z,8.07
2019-01-15T14:34:11.124Z,8.07
2019-01-15T14:36:57.356Z,8.08
2019-01-15T14:39:27.309Z,8.08
2019-01-15T14:41:57.217Z,8.08
2019-01-15T14:44:42.335Z,8.06
2019-01-15T14:47:28.399Z,8.08
2019-01-15T14:50:10.255Z,8.05
2019-01-15T14:52:54.912Z,8.04
2019-01-15T14:55:41.096Z,8.04
2019-01-15T14:58:14.008Z,8.07
2019-01-15T15:00:46.722Z,8.04
2019-01-15T15:03:16.614Z,8.06
2019-01-15T15:05:46.598Z,8.02
2019-01-15T15:08:16.493Z,7.99
2019-01-15T15:10:46.411Z,8.04
2019-01-15T15:13:16.473Z,8.03
2019-01-15T15:16:03.619Z,8.03
2019-01-15T15:18:29.825Z,8.02
2019-01-15T15:21:05.493Z,7.98
2019-01-15T15:23:47.533Z,7.98
2019-01-15T15:26:32.360Z,7.96
2019-01-15T15:29:04.914Z,7.90
2019-01-15T15:31:40.757Z,7.88
2019-01-15T15:34:10.685Z,7.88
2019-01-15T15:36:46.690Z,7.85
2019-01-15T15:39:28.634Z,7.86
2019-01-15T15:42:04.488Z,7.86
2019-01-15T15:44:40.422Z,7.80
2019-01-15T15:47:10.395Z,7.81
2019-01-15T15:49:40.308Z,7.79
2019-01-15T15:52:10.321Z,7.79
2019-01-15T15:54:43.010Z,7.75
2019-01-15T15:57:15.358Z,7.74
2019-01-15T15:59:57.284Z,7.72
2019-01-15T16:02:43.490Z,7.68
2019-01-15T16:05:29.251Z,7.72
2019-01-15T16:08:14.503Z,7.73
2019-01-15T16:10:44.416Z,7.69
2019-01-15T16:13:17.089Z,7.69
2019-01-15T16:16:01.824Z,7.68
2019-01-15T16:18:40.839Z,7.61
2019-01-15T16:21:13.156Z,7.56
2019-01-15T16:23:55.386Z,7.52
2019-01-15T16:26:33.993Z,7.49
2019-01-15T16:29:13.160Z,7.45
2019-01-15T16:31:43.066Z,7.45
2019-01-15T16:34:18.850Z,7.40
2019-01-15T16:37:00.711Z,7.37
2019-01-15T16:39:46.763Z,7.39
2019-01-15T16:42:32.778Z,7.37
2019-01-15T16:45:18.926Z,7.36
2019-01-15T16:47:54.687Z,7.39
2019-01-15T16:50:36.508Z,7.38
2019-01-15T16:53:22.593Z,7.34
2019-01-15T16:56:07.607Z,7.34
2019-01-15T16:58:42.997Z,7.33
2019-01-15T17:01:15.781Z,7.31
2019-01-15T17:03:48.240Z,7.32
2019-01-15T17:06:18.135Z,7.33
2019-01-15T17:09:04.184Z,7.29
2019-01-15T17:11:48.835Z,7.28
2019-01-15T17:14:24.438Z,7.31
2019-01-15T17:17:06.101Z,7.31
2019-01-15T17:19:42.318Z,7.26
2019-01-15T17:22:12.393Z,7.29
2019-01-15T17:25:00.179Z,7.26
2019-01-15T17:27:46.224Z,7.25
2019-01-15T17:30:19.740Z,7.23
2019-01-15T17:32:55.441Z,7.23
2019-01-15T17:35:28.283Z,7.25
2019-01-15T17:38:10.428Z,7.25
2019-01-15T17:40:43.435Z,7.30
2019-01-15T17:43:30.372Z,7.31
2019-01-15T17:46:00.434Z,7.29
2019-01-15T17:48:36.470Z,7.27
2019-01-15T17:51:12.503Z,7.26
2019-01-15T17:54:02.167Z,7.26
2019-01-15T17:56:41.168Z,7.25
2019-01-15T17:59:19.730Z,7.27
2019-01-15T18:01:52.784Z,7.28
2019-01-15T18:04:25.827Z,7.28
2019-01-15T18:07:05.049Z,7.32
2019-01-15T18:09:55.035Z,7.31
2019-01-15T18:12:30.875Z,7.32
2019-01-15T18:15:17.127Z,7.30
2019-01-15T18:17:50.072Z,7.31
2019-01-15T18:20:22.894Z,7.30
2019-01-15T18:23:09.648Z,7.31
2019-01-15T18:25:39.590Z,7.34
2019-01-15T18:28:12.283Z,7.34
2019-01-15T18:30:48.296Z,7.36
2019-01-15T18:33:34.602Z,7.37
2019-01-15T18:36:22.460Z,7.38
2019-01-15T18:38:58.284Z,7.36
2019-01-15T18:41:31.173Z,7.37
2019-01-15T18:44:17.230Z,7.37
2019-01-15T18:46:55.753Z,7.37
2019-01-15T18:49:39.468Z,7.35
2019-01-15T18:52:25.771Z,7.37
2019-01-15T18:55:14.003Z,7.37
2019-01-15T18:57:49.339Z,7.38
2019-01-15T19:00:28.254Z,7.38
2019-01-15T19:03:04.500Z,7.37
2019-01-15T19:05:40.556Z,7.36
2019-01-15T19:08:16.451Z,7.39
2019-01-15T19:10:52.467Z,7.39
2019-01-15T19:13:38.395Z,7.42
2019-01-15T19:16:14.224Z,7.42
2019-01-15T19:19:00.356Z,7.41
2019-01-15T19:21:30.401Z,7.42
2019-01-15T19:24:12.673Z,7.46
2019-01-15T19:26:48.252Z,7.44
2019-01-15T19:29:33.323Z,7.46
2019-01-15T19:32:03.408Z,7.47
2019-01-15T19:34:42.072Z,7.44
2019-01-15T19:37:24.312Z,7.43
2019-01-15T19:39:59.965Z,7.45
2019-01-15T19:42:48.159Z,7.46
2019-01-15T19:45:26.182Z,7.46
2019-01-15T19:47:58.986Z,7.44
2019-01-15T19:50:29.134Z,7.44
2019-01-15T19:53:10.927Z,7.45
2019-01-15T19:55:40.914Z,7.44
2019-01-15T19:58:27.247Z,7.43
2019-01-15T20:01:03.282Z,7.47
2019-01-15T20:03:36.070Z,7.46
2019-01-15T20:06:06.078Z,7.49
2019-01-15T20:08:39.205Z,7.52
2019-01-15T20:11:14.861Z,7.55
2019-01-15T20:13:47.688Z,7.57
2019-01-15T20:16:34.379Z,7.59
2019-01-15T20:19:21.281Z,7.56
2019-01-15T20:22:03.321Z,7.59
2019-01-15T20:24:35.923Z,7.62
2019-01-15T20:27:06.121Z,7.63
2019-01-15T20:29:36.195Z,7.63
2019-01-15T20:32:18.813Z,7.60
2019-01-15T20:34:51.320Z,7.63
2019-01-15T20:37:27.031Z,7.63
2019-01-15T20:39:59.389Z,7.61
2019-01-15T20:42:45.984Z,7.63
2019-01-15T20:45:27.889Z,7.65
2019-01-15T20:48:03.684Z,7.65
2019-01-15T20:50:36.524Z,7.65
2019-01-15T20:53:18.780Z,7.66
2019-01-15T20:55:54.696Z,7.65
2019-01-15T20:58:30.352Z,7.67
2019-01-15T21:01:16.545Z,7.69
2019-01-15T21:03:52.651Z,7.67
2019-01-15T21:06:38.825Z,7.68
2019-01-15T21:09:15.383Z,7.67
2019-01-15T21:11:53.982Z,7.65
2019-01-15T21:14:35.883Z,7.70
2019-01-15T21:17:08.671Z,7.72
2019-01-15T21:19:47.782Z,7.74
2019-01-15T21:22:20.890Z,7.74
2019-01-15T21:24:53.566Z,7.73
2019-01-15T21:27:26.244Z,7.69
2019-01-15T21:30:02.141Z,7.69
2019-01-15T21:32:34.754Z,7.72
2019-01-15T21:35:13.588Z,7.72
2019-01-15T21:37:43.496Z,7.73
2019-01-15T21:40:13.394Z,7.73
2019-01-15T21:42:58.201Z,7.75
2019-01-15T21:45:40.129Z,7.76
2019-01-15T21:48:16.084Z,7.77
2019-01-15T21:50:53.702Z,7.75
2019-01-15T21:53:23.404Z,7.75
2019-01-15T21:55:53.355Z,7.77
2019-01-15T21:58:35.110Z,7.75
2019-01-15T22:01:05.211Z,7.78
2019-01-15T22:03:37.788Z,7.75
2019-01-15T22:06:22.838Z,7.76
2019-01-15T22:08:58.805Z,7.75
2019-01-15T22:11:43.887Z,7.74
2019-01-15T22:14:29.884Z,7.76
2019-01-15T22:16:59.950Z,7.79
2019-01-15T22:19:49.578Z,7.77
2019-01-15T22:22:35.595Z,7.79
2019-01-15T22:25:15.749Z,7.80
2019-01-15T22:28:00.742Z,7.81
2019-01-15T22:30:33.396Z,7.80
2019-01-15T22:33:15.019Z,7.78
2019-01-15T22:36:01.200Z,7.83
2019-01-15T22:38:33.927Z,7.81
2019-01-15T22:41:19.983Z,7.79
2019-01-15T22:43:49.885Z,7.77
2019-01-15T22:46:21.799Z,7.76
2019-01-15T22:48:51.783Z,7.76
2019-01-15T22:51:38.171Z,7.77
2019-01-15T22:54:23.009Z,7.78
2019-01-15T22:57:01.730Z,7.82
2019-01-15T22:59:31.685Z,7.81
2019-01-15T23:02:01.588Z,7.82
2019-01-15T23:04:40.427Z,7.82
2019-01-15T23:07:19.323Z,7.79
2019-01-15T23:09:52.538Z,7.80
2019-01-15T23:12:26.169Z,7.83
2019-01-15T23:15:22.802Z,7.78
2019-01-15T23:18:10.668Z,7.80
2019-01-15T23:20:46.363Z,7.81
2019-01-15T23:23:21.915Z,7.82
2019-01-15T23:26:09.944Z,7.81
2019-01-15T23:28:46.686Z,7.80
2019-01-15T23:31:22.394Z,7.81
2019-01-15T23:33:54.511Z,7.80
2019-01-15T23:36:29.322Z,7.79
2019-01-15T23:38:56.702Z,7.80
2019-01-15T23:41:43.673Z,7.78
2019-01-15T23:44:22.505Z,7.79
2019-01-15T23:46:54.185Z,7.77
2019-01-15T23:49:27.170Z,7.78
2019-01-15T23:52:09.217Z,7.79
2019-01-15T23:54:47.990Z,7.78
2019-01-15T23:57:23.717Z,7.78
2019-01-15T23:59:53.695Z,7.76
